Time;durP1;ratioP1;P1;durP2;ratioP2;P2;SDS_P1;SDS_P2;PMS_P1;PMS_P2;Temp;Humidity;BMP_temperature;BMP_pressure;BME280_temperature;BME280_humidity;BME280_pressure;Samples;Min_cycle;Max_cycle;Signal;HPM_P1;HPM_P2
2023/10/29 00:01:12;;;;;;;0.30;0.30;;;20.70;54.00;;;;;;5069094;28;20055;-54
2023/10/29 00:03:38;;;;;;;0.38;0.30;;;20.70;54.00;;;;;;5068575;28;20083;-56
2023/10/29 00:06:04;;;;;;;0.30;0.30;;;20.60;54.00;;;;;;5069996;28;20028;-56
2023/10/29 00:08:29;;;;;;;0.47;0.30;;;20.60;54.00;;;;;;5073847;28;20024;-51
2023/10/29 00:10:55;;;;;;;0.50;0.30;;;20.60;54.00;;;;;;5052369;28;20064;-55
2023/10/29 00:13:23;;;;;;;0.30;0.30;;;20.70;54.10;;;;;;5069761;28;20029;-55
2023/10/29 00:15:49;;;;;;;0.40;0.30;;;20.70;54.10;;;;;;5072741;28;20043;-53
2023/10/29 00:18:16;;;;;;;0.68;0.20;;;20.60;54.10;;;;;;5053588;28;20351;-52
2023/10/29 00:20:42;;;;;;;0.55;0.30;;;20.70;54.20;;;;;;5071833;28;20047;-53
2023/10/29 00:23:09;;;;;;;1.00;0.40;;;20.70;54.20;;;;;;5068892;28;20033;-56
2023/10/29 00:25:35;;;;;;;0.50;0.20;;;20.60;54.10;;;;;;5077517;28;20407;-58
2023/10/29 00:28:01;;;;;;;0.63;0.40;;;20.60;54.20;;;;;;5070390;28;20048;-55
2023/10/29 00:30:26;;;;;;;0.50;0.38;;;20.60;54.20;;;;;;5069957;28;20039;-56
2023/10/29 00:32:52;;;;;;;0.17;0.17;;;20.70;54.30;;;;;;5068517;28;21564;-58
2023/10/29 00:35:18;;;;;;;0.60;0.40;;;20.70;54.30;;;;;;5071581;28;20097;-57
2023/10/29 00:37:44;;;;;;;1.58;0.32;;;20.70;54.30;;;;;;5068034;28;20031;-55
2023/10/29 00:40:10;;;;;;;0.63;0.30;;;20.60;54.30;;;;;;5069970;28;20068;-56
2023/10/29 00:42:36;;;;;;;0.70;0.35;;;20.60;54.30;;;;;;5068148;28;20402;-58
2023/10/29 00:45:02;;;;;;;0.55;0.30;;;20.70;54.40;;;;;;5071860;28;20024;-56
2023/10/29 00:47:28;;;;;;;0.70;0.30;;;20.60;54.30;;;;;;5073621;28;20031;-57
2023/10/29 00:49:54;;;;;;;0.50;0.30;;;20.60;54.40;;;;;;5069572;28;20029;-54
2023/10/29 00:52:21;;;;;;;0.50;0.20;;;20.60;54.40;;;;;;5066813;28;20043;-53
2023/10/29 00:54:48;;;;;;;0.80;0.30;;;20.70;54.50;;;;;;5055429;28;20089;-52
2023/10/29 00:57:15;;;;;;;0.40;0.20;;;20.60;54.40;;;;;;5052360;28;20032;-55
2023/10/29 00:59:41;;;;;;;0.40;0.38;;;20.60;54.40;;;;;;5071434;28;20466;-53
2023/10/29 01:02:07;;;;;;;0.40;0.32;;;20.70;54.50;;;;;;5051202;28;20104;-55
2023/10/29 01:04:36;;;;;;;0.20;0.20;;;20.60;54.50;;;;;;5074206;28;20111;-53
2023/10/29 01:07:02;;;;;;;0.60;0.30;;;20.60;54.50;;;;;;5075357;28;20035;-55
2023/10/29 01:09:29;;;;;;;0.50;0.30;;;20.60;54.50;;;;;;5078907;28;20413;-55
2023/10/29 01:11:55;;;;;;;0.47;0.20;;;20.60;54.50;;;;;;5073559;28;20155;-58
2023/10/29 01:14:21;;;;;;;0.20;0.20;;;20.60;54.50;;;;;;5071761;28;20123;-56
2023/10/29 01:16:46;;;;;;;0.70;0.43;;;20.60;54.50;;;;;;5072784;28;20076;-57
2023/10/29 01:19:12;;;;;;;0.45;0.30;;;20.60;54.60;;;;;;5073724;28;20032;-55
2023/10/29 01:21:38;;;;;;;0.20;0.20;;;20.60;54.60;;;;;;5074077;28;20440;-56
2023/10/29 01:24:05;;;;;;;0.32;0.25;;;20.60;54.60;;;;;;5054515;28;20032;-57
2023/10/29 01:26:31;;;;;;;0.13;0.13;;;20.60;54.70;;;;;;5074898;28;20029;-55
2023/10/29 01:28:57;;;;;;;0.85;0.40;;;20.60;54.60;;;;;;5057867;28;20323;-58
2023/10/29 01:31:23;;;;;;;0.52;0.30;;;20.60;54.70;;;;;;5073852;28;20028;-51
2023/10/29 01:33:49;;;;;;;0.52;0.20;;;20.60;54.70;;;;;;5056763;28;20111;-55
2023/10/29 01:36:15;;;;;;;0.22;0.20;;;20.60;54.70;;;;;;5074845;28;20024;-52
2023/10/29 01:38:40;;;;;;;0.55;0.40;;;20.60;54.70;;;;;;5080648;28;20359;-54
2023/10/29 01:41:06;;;;;;;0.52;0.30;;;20.60;54.70;;;;;;5073028;28;20088;-57
2023/10/29 01:43:32;;;;;;;0.20;0.20;;;20.50;54.70;;;;;;5056287;28;20033;-56
2023/10/29 01:45:58;;;;;;;0.73;0.30;;;20.60;54.80;;;;;;5070191;28;20032;-53
2023/10/29 01:48:24;;;;;;;0.30;0.20;;;20.60;54.80;;;;;;5059247;28;20389;-55
2023/10/29 01:50:50;;;;;;;0.22;0.22;;;20.60;54.80;;;;;;5049324;28;20032;-54
2023/10/29 01:53:16;;;;;;;0.90;0.30;;;20.60;54.80;;;;;;5072549;28;20115;-55
2023/10/29 01:55:42;;;;;;;0.38;0.30;;;20.60;54.80;;;;;;5055597;28;20455;-56
2023/10/29 01:58:08;;;;;;;0.25;0.20;;;20.60;54.80;;;;;;5074233;28;20048;-56
2023/10/29 02:00:34;;;;;;;0.57;0.43;;;20.60;54.80;;;;;;5080388;28;20062;-54
2023/10/29 02:03:01;;;;;;;0.55;0.30;;;20.60;54.90;;;;;;5072233;28;20033;-55
2023/10/29 02:05:26;;;;;;;0.50;0.35;;;20.60;54.90;;;;;;5074558;28;20035;-58
2023/10/29 02:07:53;;;;;;;0.25;0.25;;;20.50;54.80;;;;;;5073613;28;20060;-56
2023/10/29 02:10:19;;;;;;;0.35;0.28;;;20.50;54.80;;;;;;5074256;28;20029;-57
2023/10/29 02:12:45;;;;;;;0.68;0.40;;;20.50;54.80;;;;;;5072274;28;20472;-53
2023/10/29 02:15:12;;;;;;;0.77;0.15;;;20.50;54.90;;;;;;5073080;28;20045;-54
2023/10/29 02:17:37;;;;;;;0.45;0.30;;;20.60;54.90;;;;;;5070546;28;20020;-53
2023/10/29 02:20:06;;;;;;;0.32;0.22;;;20.50;54.90;;;;;;5075207;28;20141;-58
2023/10/29 02:22:32;;;;;;;1.27;0.30;;;20.50;54.90;;;;;;5071547;28;20067;-54
2023/10/29 02:24:58;;;;;;;0.22;0.20;;;20.50;54.90;;;;;;5077631;28;20067;-55
2023/10/29 02:27:24;;;;;;;0.85;0.30;;;20.50;54.90;;;;;;5070449;28;20039;-56
2023/10/29 02:29:49;;;;;;;0.32;0.28;;;20.60;55.00;;;;;;5074555;28;20059;-55
2023/10/29 02:32:15;;;;;;;0.73;0.30;;;20.50;54.90;;;;;;5076670;28;20024;-57
2023/10/29 02:34:41;;;;;;;0.63;0.20;;;20.50;54.90;;;;;;5072216;28;20056;-58
2023/10/29 02:37:07;;;;;;;0.25;0.25;;;20.60;55.00;;;;;;5072132;28;20036;-53
2023/10/29 02:39:33;;;;;;;0.25;0.25;;;20.50;54.90;;;;;;5077626;28;20040;-53
2023/10/29 02:41:59;;;;;;;0.40;0.20;;;20.50;54.90;;;;;;5073816;28;20032;-57
2023/10/29 02:44:26;;;;;;;0.20;0.20;;;20.50;54.90;;;;;;5070427;28;20025;-55
2023/10/29 02:46:52;;;;;;;0.75;0.20;;;20.50;54.90;;;;;;5072167;28;20509;-52
2023/10/29 02:49:17;;;;;;;0.98;0.28;;;20.50;54.90;;;;;;5074039;28;20050;-56
2023/10/29 02:51:44;;;;;;;0.47;0.30;;;20.50;55.00;;;;;;5074555;28;20024;-54
2023/10/29 02:54:10;;;;;;;0.85;0.40;;;20.50;55.00;;;;;;5071543;28;20040;-56
2023/10/29 02:56:37;;;;;;;0.40;0.20;;;20.50;55.00;;;;;;5073678;28;20028;-55
2023/10/29 02:59:03;;;;;;;0.75;0.30;;;20.60;55.00;;;;;;5070082;28;20028;-52
2023/10/29 03:01:29;;;;;;;0.43;0.30;;;20.50;55.00;;;;;;5076938;28;20056;-51
2023/10/29 03:03:55;;;;;;;0.98;0.40;;;20.50;55.00;;;;;;5054186;28;20086;-50
2023/10/29 03:06:22;;;;;;;0.35;0.20;;;20.50;55.00;;;;;;5072351;28;20555;-57
2023/10/29 03:08:48;;;;;;;0.50;0.20;;;20.50;55.00;;;;;;5054079;28;20375;-57
2023/10/29 03:11:14;;;;;;;0.50;0.28;;;20.50;55.00;;;;;;5070826;28;20119;-55
2023/10/29 03:13:40;;;;;;;0.63;0.40;;;20.50;54.90;;;;;;5071652;28;20024;-55
2023/10/29 03:16:06;;;;;;;0.20;0.13;;;20.50;55.50;;;;;;5067296;28;20028;-57
2023/10/29 03:18:32;;;;;;;1.50;0.20;;;20.50;54.90;;;;;;5072012;28;20028;-53
2023/10/29 03:20:58;;;;;;;0.40;0.20;;;20.50;54.90;;;;;;5051791;28;20055;-55
2023/10/29 03:23:24;;;;;;;0.80;0.43;;;20.50;54.90;;;;;;5071382;28;20067;-50
2023/10/29 03:25:51;;;;;;;0.10;0.10;;;20.50;54.80;;;;;;5054179;28;20033;-56
2023/10/29 03:28:17;;;;;;;0.30;0.20;;;20.50;55.40;;;;;;5074307;28;20028;-56
2023/10/29 03:30:43;;;;;;;0.57;0.20;;;20.50;54.80;;;;;;5055766;28;20035;-57
2023/10/29 03:33:09;;;;;;;0.30;0.20;;;20.50;54.80;;;;;;5070948;28;20031;-58
2023/10/29 03:35:37;;;;;;;0.85;0.30;;;20.50;54.80;;;;;;5076344;28;20031;-55
2023/10/29 03:38:02;;;;;;;0.65;0.20;;;20.50;54.80;;;;;;5072501;28;20029;-53
2023/10/29 03:40:29;;;;;;;0.35;0.28;;;20.50;54.80;;;;;;5055649;28;20412;-53
2023/10/29 03:42:56;;;;;;;0.45;0.22;;;20.50;54.70;;;;;;5069587;28;20103;-57
2023/10/29 03:45:22;;;;;;;0.30;0.25;;;20.50;54.70;;;;;;5057489;28;20336;-57
2023/10/29 03:47:47;;;;;;;0.98;0.30;;;20.50;54.80;;;;;;5062023;28;20044;-54
2023/10/29 03:50:14;;;;;;;0.60;0.35;;;20.50;54.70;;;;;;5071879;28;20024;-55
2023/10/29 03:52:40;;;;;;;0.40;0.20;;;20.50;54.70;;;;;;5069660;28;20055;-53
2023/10/29 03:55:06;;;;;;;0.50;0.30;;;20.50;55.30;;;;;;5069936;28;20029;-53
2023/10/29 03:57:32;;;;;;;0.50;0.22;;;20.50;54.70;;;;;;5078324;28;20025;-58
2023/10/29 03:59:58;;;;;;;0.43;0.40;;;20.50;54.70;;;;;;5070046;28;20037;-56
2023/10/29 04:02:24;;;;;;;0.30;0.10;;;20.50;54.60;;;;;;5072649;28;20047;-55
2023/10/29 04:04:50;;;;;;;0.43;0.20;;;20.50;54.60;;;;;;5071329;28;21707;-57
2023/10/29 04:07:15;;;;;;;0.20;0.20;;;20.50;54.60;;;;;;5066126;28;20076;-55
2023/10/29 04:09:41;;;;;;;0.50;0.30;;;20.50;54.60;;;;;;5071204;28;20031;-57
2023/10/29 04:12:07;;;;;;;0.40;0.20;;;20.50;54.60;;;;;;5070311;28;20509;-57
2023/10/29 04:14:34;;;;;;;0.40;0.10;;;20.50;54.60;;;;;;5071854;28;20359;-50
2023/10/29 04:16:59;;;;;;;0.50;0.30;;;20.50;54.50;;;;;;5070105;28;20086;-55
2023/10/29 04:19:25;;;;;;;1.00;0.40;;;20.50;54.50;;;;;;5071932;28;20037;-55
2023/10/29 04:21:51;;;;;;;0.60;0.20;;;20.50;54.50;;;;;;5072360;28;20028;-59
2023/10/29 04:24:17;;;;;;;0.20;0.17;;;20.50;54.50;;;;;;5069936;28;20447;-54
2023/10/29 04:26:44;;;;;;;1.00;0.22;;;20.50;54.50;;;;;;5069511;28;20043;-57
2023/10/29 04:29:09;;;;;;;0.95;0.40;;;20.50;54.50;;;;;;5074839;28;20460;-54
2023/10/29 04:31:35;;;;;;;0.30;0.20;;;20.50;54.50;;;;;;5070028;28;20020;-55
2023/10/29 04:34:01;;;;;;;0.30;0.20;;;20.50;54.50;;;;;;5066708;28;20118;-51
2023/10/29 04:36:27;;;;;;;0.80;0.22;;;20.50;54.40;;;;;;5075445;28;20033;-59
2023/10/29 04:38:53;;;;;;;0.52;0.30;;;20.50;54.40;;;;;;5070786;28;20101;-56
2023/10/29 04:41:18;;;;;;;0.73;0.20;;;20.50;54.40;;;;;;5069829;28;20044;-54
2023/10/29 04:43:44;;;;;;;0.73;0.30;;;20.50;54.40;;;;;;5069412;28;20050;-52
2023/10/29 04:46:10;;;;;;;0.40;0.22;;;20.40;54.40;;;;;;5071100;28;20047;-56
2023/10/29 04:48:37;;;;;;;0.40;0.30;;;20.50;54.40;;;;;;5069667;28;20032;-56
2023/10/29 04:51:07;;;;;;;0.43;0.22;;;20.40;54.40;;;;;;5069671;28;20036;-55
2023/10/29 04:53:36;;;;;;;0.40;0.20;;;20.40;54.30;;;;;;5068258;28;20029;-56
2023/10/29 04:56:03;;;;;;;0.80;0.10;;;20.50;54.40;;;;;;5070801;28;20679;-58
2023/10/29 04:58:29;;;;;;;1.05;0.20;;;20.50;54.40;;;;;;5065977;28;20071;-57
2023/10/29 05:00:58;;;;;;;0.52;0.28;;;20.50;54.40;;;;;;5073268;28;20072;-54
2023/10/29 05:03:24;;;;;;;0.28;0.20;;;20.50;54.40;;;;;;5067573;28;20024;-56
2023/10/29 05:05:50;;;;;;;0.28;0.22;;;20.50;54.40;;;;;;5072603;28;20414;-54
2023/10/29 05:08:16;;;;;;;0.40;0.28;;;20.50;54.40;;;;;;5071713;28;20032;-56
2023/10/29 05:10:44;;;;;;;0.45;0.20;;;20.50;54.40;;;;;;5073376;28;20466;-56
2023/10/29 05:13:10;;;;;;;0.30;0.30;;;20.50;54.50;;;;;;5071909;28;20034;-58
2023/10/29 05:15:36;;;;;;;0.57;0.43;;;20.50;54.50;;;;;;5068905;28;20055;-58
2023/10/29 05:18:02;;;;;;;0.20;0.20;;;20.50;54.50;;;;;;5071504;28;21759;-55
2023/10/29 05:20:28;;;;;;;0.47;0.20;;;20.40;54.40;;;;;;5075840;28;20105;-56
2023/10/29 05:22:54;;;;;;;0.22;0.20;;;20.40;54.50;;;;;;5073333;28;20035;-54
2023/10/29 05:25:20;;;;;;;0.82;0.20;;;20.50;54.60;;;;;;5071870;28;20112;-54
2023/10/29 05:27:53;;;;;;;0.52;0.30;;;20.50;54.60;;;;;;5072763;28;20425;-53
2023/10/29 05:30:19;;;;;;;2.28;0.60;;;20.40;54.60;;;;;;5069115;28;20486;-56
2023/10/29 05:32:45;;;;;;;0.35;0.30;;;20.40;54.60;;;;;;5069237;28;20507;-56
2023/10/29 05:35:10;;;;;;;0.75;0.38;;;20.50;54.70;;;;;;5075775;28;20218;-52
2023/10/29 05:37:36;;;;;;;0.38;0.22;;;20.50;54.70;;;;;;5073271;28;20103;-52
2023/10/29 05:40:04;;;;;;;0.68;0.40;;;20.50;54.70;;;;;;5074557;28;20045;-54
2023/10/29 05:42:33;;;;;;;0.47;0.20;;;20.50;54.70;;;;;;5073851;28;20028;-58
2023/10/29 05:44:59;;;;;;;0.98;0.30;;;20.50;54.70;;;;;;5071658;28;20033;-55
2023/10/29 05:47:25;;;;;;;0.52;0.30;;;20.50;54.70;;;;;;5074814;28;21632;-56
2023/10/29 05:49:50;;;;;;;0.75;0.22;;;20.40;54.60;;;;;;5072010;28;20020;-53
2023/10/29 05:52:16;;;;;;;1.08;0.30;;;20.50;54.70;;;;;;5075538;28;20058;-54
2023/10/29 05:54:42;;;;;;;0.77;0.20;;;20.50;54.70;;;;;;5078736;28;20032;-53
2023/10/29 05:57:09;;;;;;;0.93;0.20;;;20.50;54.70;;;;;;5073599;28;20035;-55
2023/10/29 05:59:35;;;;;;;0.57;0.22;;;20.40;54.60;;;;;;5074847;28;20463;-57
2023/10/29 06:02:01;;;;;;;0.43;0.30;;;20.40;54.60;;;;;;5073347;28;20033;-54
2023/10/29 06:04:27;;;;;;;0.40;0.30;;;20.40;54.60;;;;;;5078233;28;20024;-57
2023/10/29 06:06:53;;;;;;;0.95;0.22;;;20.40;54.60;;;;;;5076347;28;20036;-56
2023/10/29 06:09:19;;;;;;;0.82;0.28;;;20.50;54.60;;;;;;5074185;28;20590;-53
2023/10/29 06:11:45;;;;;;;0.35;0.30;;;20.50;54.50;;;;;;5074437;28;20024;-56
2023/10/29 06:14:11;;;;;;;0.65;0.30;;;20.50;54.50;;;;;;5057577;28;20017;-54
2023/10/29 06:16:37;;;;;;;0.30;0.10;;;20.50;54.50;;;;;;5072019;28;20050;-55
2023/10/29 06:19:03;;;;;;;0.43;0.20;;;20.40;54.40;;;;;;5053519;28;20603;-54
2023/10/29 06:21:30;;;;;;;0.38;0.20;;;20.40;54.30;;;;;;5059982;28;20028;-56
2023/10/29 06:23:56;;;;;;;0.65;0.20;;;20.40;54.20;;;;;;5079214;28;20118;-55
2023/10/29 06:26:22;;;;;;;1.58;0.30;;;20.40;54.20;;;;;;5076906;28;20023;-54
2023/10/29 06:28:48;;;;;;;0.88;0.30;;;20.40;54.10;;;;;;5073500;28;20039;-56
2023/10/29 06:31:15;;;;;;;0.22;0.10;;;20.40;54.00;;;;;;5074767;28;20047;-54
2023/10/29 06:33:41;;;;;;;0.70;0.30;;;20.40;54.00;;;;;;5075770;28;20127;-57
2023/10/29 06:36:08;;;;;;;1.20;0.35;;;20.40;53.90;;;;;;5074098;28;20020;-55
2023/10/29 06:38:34;;;;;;;1.02;0.40;;;20.40;53.80;;;;;;5078318;28;20048;-56
2023/10/29 06:41:00;;;;;;;0.68;0.20;;;20.40;53.80;;;;;;5074966;28;20048;-54
2023/10/29 06:43:26;;;;;;;0.57;0.25;;;20.40;53.80;;;;;;5070982;28;20414;-55
2023/10/29 06:45:52;;;;;;;0.30;0.20;;;20.40;53.70;;;;;;5078733;28;20061;-56
2023/10/29 06:48:18;;;;;;;0.77;0.20;;;20.40;53.70;;;;;;5073168;28;20025;-57
2023/10/29 06:50:44;;;;;;;0.20;0.20;;;20.40;53.70;;;;;;5074263;28;20043;-53
2023/10/29 06:53:10;;;;;;;0.38;0.17;;;20.40;53.60;;;;;;5080583;28;20080;-54
2023/10/29 06:55:37;;;;;;;0.32;0.22;;;20.40;53.50;;;;;;5078311;28;20408;-57
2023/10/29 06:58:03;;;;;;;0.63;0.20;;;20.40;53.50;;;;;;5076155;28;20024;-52
2023/10/29 07:00:31;;;;;;;0.32;0.20;;;20.40;53.50;;;;;;5074301;28;20037;-55
2023/10/29 07:02:57;;;;;;;0.73;0.22;;;20.40;53.40;;;;;;5070564;28;20111;-52
2023/10/29 07:05:23;;;;;;;0.70;0.20;;;20.40;53.40;;;;;;5078346;28;20166;-56
2023/10/29 07:07:49;;;;;;;0.90;0.20;;;20.40;53.40;;;;;;5069547;28;20032;-54
2023/10/29 07:10:15;;;;;;;0.40;0.20;;;20.40;53.30;;;;;;5076110;28;20039;-57
2023/10/29 07:12:41;;;;;;;2.28;0.20;;;20.40;53.30;;;;;;5069065;28;20443;-58
2023/10/29 07:15:09;;;;;;;0.65;0.25;;;20.50;53.30;;;;;;5082347;28;20119;-55
2023/10/29 07:17:35;;;;;;;0.98;0.20;;;20.40;53.30;;;;;;5054510;28;20466;-56
2023/10/29 07:20:01;;;;;;;3.33;0.50;;;20.40;53.20;;;;;;5070985;28;20130;-51
2023/10/29 07:22:27;;;;;;;0.30;0.20;;;20.40;53.20;;;;;;5075325;28;20447;-57
2023/10/29 07:24:53;;;;;;;0.80;0.30;;;20.40;53.20;;;;;;5073969;28;20028;-56
2023/10/29 07:27:20;;;;;;;0.82;0.40;;;20.40;53.20;;;;;;5072649;28;20016;-53
2023/10/29 07:29:46;;;;;;;2.05;0.40;;;20.40;53.20;;;;;;5070031;28;20040;-58
2023/10/29 07:32:13;;;;;;;0.80;0.20;;;20.40;53.20;;;;;;5074870;28;20039;-54
2023/10/29 07:34:40;;;;;;;1.33;0.63;;;20.40;53.10;;;;;;5071951;28;20131;-55
2023/10/29 07:37:06;;;;;;;1.00;0.40;;;20.40;53.10;;;;;;5071919;28;20105;-55
2023/10/29 07:39:33;;;;;;;0.82;0.28;;;20.40;53.10;;;;;;5075364;28;20050;-55
2023/10/29 07:42:01;;;;;;;1.48;0.40;;;20.40;53.70;;;;;;5073843;28;20036;-54
2023/10/29 07:44:27;;;;;;;0.55;0.28;;;20.40;53.10;;;;;;5078701;28;20029;-56
2023/10/29 07:46:53;;;;;;;0.45;0.30;;;20.40;53.10;;;;;;5075536;28;20032;-56
2023/10/29 07:49:20;;;;;;;1.33;0.40;;;20.40;53.00;;;;;;5079899;28;20572;-54
2023/10/29 07:51:47;;;;;;;1.13;0.40;;;20.50;53.10;;;;;;5075805;28;20066;-56
2023/10/29 07:54:13;;;;;;;0.70;0.30;;;20.40;53.00;;;;;;5064398;28;20039;-53
2023/10/29 07:56:39;;;;;;;1.67;0.43;;;20.50;53.00;;;;;;5081985;28;20032;-56
2023/10/29 07:59:05;;;;;;;0.85;0.40;;;20.50;53.00;;;;;;5055618;28;20028;-61
2023/10/29 08:01:31;;;;;;;1.50;0.38;;;20.40;52.90;;;;;;5071016;28;20048;-52
2023/10/29 08:03:57;;;;;;;0.95;0.30;;;20.50;53.00;;;;;;5073448;28;20043;-56
2023/10/29 08:06:23;;;;;;;0.82;0.30;;;20.50;53.00;;;;;;5076380;28;20028;-59
2023/10/29 08:08:49;;;;;;;0.45;0.30;;;20.40;52.90;;;;;;5073262;28;20052;-57
2023/10/29 08:11:19;;;;;;;1.20;0.50;;;20.40;53.00;;;;;;5080703;28;20024;-54
2023/10/29 08:13:45;;;;;;;1.10;0.52;;;20.50;53.00;;;;;;5083756;28;20466;-56
2023/10/29 08:16:12;;;;;;;1.15;0.30;;;20.50;53.60;;;;;;5056875;28;20107;-59
2023/10/29 08:18:38;;;;;;;1.00;0.43;;;20.50;53.60;;;;;;5072760;28;20035;-55
2023/10/29 08:21:04;;;;;;;0.60;0.20;;;20.50;52.90;;;;;;5079158;28;20091;-54
2023/10/29 08:23:31;;;;;;;1.42;0.60;;;20.50;52.80;;;;;;5067505;28;20028;-57
2023/10/29 08:25:57;;;;;;;0.77;0.30;;;20.50;53.40;;;;;;5079122;28;20016;-56
2023/10/29 08:28:25;;;;;;;0.57;0.28;;;20.50;52.90;;;;;;5074406;28;20069;-55
2023/10/29 08:30:51;;;;;;;1.58;0.50;;;20.50;52.70;;;;;;5082173;28;20224;-54
2023/10/29 08:33:19;;;;;;;1.10;0.30;;;20.50;52.70;;;;;;5080550;28;20151;-56
2023/10/29 08:35:45;;;;;;;0.82;0.40;;;20.50;52.70;;;;;;5077366;28;20131;-56
2023/10/29 08:38:11;;;;;;;1.75;0.60;;;20.50;52.70;;;;;;5078511;28;20037;-56
2023/10/29 08:40:37;;;;;;;1.52;0.50;;;20.50;52.70;;;;;;5082507;28;20036;-54
2023/10/29 08:43:07;;;;;;;0.88;0.60;;;20.50;52.60;;;;;;5065814;28;20174;-56
2023/10/29 08:45:33;;;;;;;1.75;0.50;;;20.50;52.60;;;;;;5084030;28;20064;-54
2023/10/29 08:47:59;;;;;;;1.48;0.60;;;20.60;52.60;;;;;;5082773;28;20055;-57
2023/10/29 08:50:28;;;;;;;0.70;0.50;;;20.60;52.60;;;;;;5085697;28;20070;-53
2023/10/29 08:52:54;;;;;;;1.50;0.50;;;20.50;52.50;;;;;;5084724;28;20025;-53
2023/10/29 08:55:20;;;;;;;2.17;0.47;;;20.50;52.40;;;;;;5076201;28;20036;-54
2023/10/29 08:57:46;;;;;;;1.48;0.80;;;20.60;52.40;;;;;;5075293;28;20028;-57
2023/10/29 09:00:12;;;;;;;1.52;0.50;;;20.60;52.60;;;;;;5063492;28;20124;-55
2023/10/29 09:02:38;;;;;;;1.55;0.50;;;20.60;52.30;;;;;;5080880;28;20039;-55
2023/10/29 09:05:05;;;;;;;1.88;0.60;;;20.60;52.30;;;;;;5077968;28;20021;-57
2023/10/29 09:07:31;;;;;;;0.80;0.45;;;20.60;52.20;;;;;;5077012;28;20097;-55
2023/10/29 09:09:58;;;;;;;2.60;0.47;;;20.60;52.20;;;;;;5076673;28;20422;-53
2023/10/29 09:12:25;;;;;;;2.20;0.52;;;20.60;52.10;;;;;;5080807;28;20115;-56
2023/10/29 09:14:51;;;;;;;1.58;0.60;;;20.60;52.70;;;;;;5077969;28;20038;-54
2023/10/29 09:17:17;;;;;;;0.95;0.50;;;20.60;52.00;;;;;;5070372;28;20115;-54
2023/10/29 09:19:43;;;;;;;1.42;0.45;;;20.60;52.00;;;;;;5071619;28;20028;-55
2023/10/29 09:22:09;;;;;;;1.27;0.50;;;20.60;51.90;;;;;;5076839;28;20379;-55
2023/10/29 09:24:34;;;;;;;2.10;0.70;;;20.60;51.80;;;;;;5080644;28;20025;-58
2023/10/29 09:27:00;;;;;;;3.65;0.50;;;20.60;51.80;;;;;;5086869;28;20028;-55
2023/10/29 09:29:26;;;;;;;1.52;0.70;;;20.60;51.80;;;;;;5081043;28;20052;-56
2023/10/29 09:31:52;;;;;;;2.65;0.70;;;20.60;51.70;;;;;;5081806;28;20025;-58
2023/10/29 09:34:18;;;;;;;1.85;0.52;;;20.60;51.80;;;;;;5079417;28;20463;-59
2023/10/29 09:36:44;;;;;;;1.92;0.50;;;20.60;51.70;;;;;;5082241;28;20047;-59
2023/10/29 09:39:10;;;;;;;0.95;0.40;;;20.70;51.70;;;;;;5083129;28;20051;-59
2023/10/29 09:41:38;;;;;;;1.00;0.40;;;20.70;51.60;;;;;;5088636;28;20123;-59
2023/10/29 09:44:08;;;;;;;2.55;0.65;;;20.70;51.50;;;;;;5083822;28;20072;-56
2023/10/29 09:46:36;;;;;;;1.58;0.82;;;20.70;51.30;;;;;;5084317;28;20031;-54
2023/10/29 09:49:03;;;;;;;2.33;1.00;;;20.70;51.30;;;;;;5069763;28;20103;-52
2023/10/29 09:51:29;;;;;;;6.63;2.28;;;20.70;51.30;;;;;;5085855;28;20355;-59
2023/10/29 09:53:59;;;;;;;8.52;3.75;;;20.70;51.60;;;;;;5086206;28;20389;-55
2023/10/29 09:56:26;;;;;;;12.73;4.78;;;20.70;52.00;;;;;;5086007;28;20464;-54
2023/10/29 09:58:52;;;;;;;11.55;4.97;;;20.80;52.60;;;;;;5087812;28;20498;-58
2023/10/29 10:01:18;;;;;;;9.23;4.75;;;20.80;52.90;;;;;;5086252;28;20040;-53
2023/10/29 10:03:45;;;;;;;11.20;4.60;;;20.80;53.30;;;;;;5080944;28;20120;-58
2023/10/29 10:06:14;;;;;;;8.13;3.75;;;20.80;53.60;;;;;;5085991;28;20039;-54
2023/10/29 10:08:40;;;;;;;11.80;4.03;;;20.90;53.80;;;;;;5068785;28;20036;-54
2023/10/29 10:11:21;;;;;;;8.35;4.05;;;20.90;53.90;;;;;;5087984;28;20365;-59
2023/10/29 10:13:47;;;;;;;11.10;4.82;;;20.90;54.20;;;;;;5085456;28;20096;-56
2023/10/29 10:16:14;;;;;;;15.07;5.82;;;20.90;54.20;;;;;;5084222;28;20486;-58
2023/10/29 10:18:50;;;;;;;14.35;6.10;;;20.90;54.50;;;;;;5083586;28;20047;-57
2023/10/29 10:21:21;;;;;;;11.80;5.55;;;21.00;55.10;;;;;;5087212;28;20039;-59
2023/10/29 10:23:49;;;;;;;8.98;4.53;;;21.00;55.40;;;;;;5085701;28;20373;-55
2023/10/29 10:26:18;;;;;;;9.70;5.05;;;21.00;55.50;;;;;;5075556;28;20020;-50
2023/10/29 10:28:54;;;;;;;11.85;4.72;;;21.00;55.40;;;;;;5076770;28;20509;-55
2023/10/29 10:31:21;;;;;;;7.47;4.25;;;21.10;55.50;;;;;;5073828;28;20032;-56
2023/10/29 10:33:48;;;;;;;12.95;6.55;;;21.10;55.50;;;;;;5073844;28;20129;-56
2023/10/29 10:36:14;;;;;;;16.52;7.72;;;21.10;55.70;;;;;;5071952;28;20470;-53
2023/10/29 10:38:52;;;;;;;15.63;8.00;;;21.10;55.80;;;;;;5075781;28;20039;-56
2023/10/29 10:41:18;;;;;;;12.85;7.15;;;21.20;56.00;;;;;;5075323;28;20047;-57
2023/10/29 10:43:44;;;;;;;12.95;6.40;;;21.20;55.90;;;;;;5072791;28;20024;-59
2023/10/29 10:46:13;;;;;;;13.65;5.68;;;21.20;55.80;;;;;;5075482;28;20036;-57
2023/10/29 10:48:42;;;;;;;8.23;3.90;;;21.20;55.60;;;;;;5073075;28;20112;-59
2023/10/29 10:51:11;;;;;;;5.35;2.33;;;21.20;55.20;;;;;;5077665;28;20051;-56
2023/10/29 10:53:38;;;;;;;4.28;1.70;;;21.20;55.40;;;;;;5054609;28;20404;-54
2023/10/29 10:56:08;;;;;;;4.50;2.00;;;21.20;54.40;;;;;;5076934;28;20396;-57
2023/10/29 10:58:36;;;;;;;4.82;1.80;;;21.20;54.20;;;;;;5074940;28;20409;-52
2023/10/29 11:01:02;;;;;;;5.53;2.17;;;21.20;54.10;;;;;;5076675;28;20029;-57
2023/10/29 11:03:32;;;;;;;4.13;1.77;;;21.20;53.80;;;;;;5074997;28;20032;-59
2023/10/29 11:05:58;;;;;;;3.28;1.40;;;21.20;53.50;;;;;;5070475;28;20492;-55
2023/10/29 11:08:25;;;;;;;3.90;1.30;;;21.20;53.20;;;;;;5072345;28;20065;-57
2023/10/29 11:10:53;;;;;;;3.08;1.33;;;21.20;52.80;;;;;;5051059;28;20071;-57
2023/10/29 11:13:20;;;;;;;3.20;1.40;;;21.20;52.50;;;;;;5075503;28;20082;-58
2023/10/29 11:15:47;;;;;;;2.97;1.15;;;21.20;52.20;;;;;;5077635;28;20097;-59
2023/10/29 11:18:13;;;;;;;3.50;1.25;;;21.20;52.00;;;;;;5071962;28;20708;-55
2023/10/29 11:20:39;;;;;;;2.55;1.23;;;21.20;51.70;;;;;;5073754;28;20042;-58
2023/10/29 11:23:15;;;;;;;2.08;0.80;;;21.20;51.50;;;;;;5072619;28;20051;-54
2023/10/29 11:25:42;;;;;;;2.80;1.10;;;21.20;51.20;;;;;;5074702;28;20036;-57
2023/10/29 11:28:33;;;;;;;2.13;0.80;;;21.20;51.20;;;;;;5074489;28;20048;-56
2023/10/29 11:31:22;;;;;;;3.05;1.00;;;21.20;50.90;;;;;;5072781;28;20080;-55
2023/10/29 11:33:57;;;;;;;1.90;0.80;;;21.20;50.70;;;;;;5075992;28;20059;-57
2023/10/29 11:36:37;;;;;;;1.20;0.63;;;21.20;50.60;;;;;;5074830;28;20040;-57
2023/10/29 11:39:31;;;;;;;1.67;0.60;;;21.20;50.50;;;;;;5075309;28;20113;-55
2023/10/29 11:41:57;;;;;;;1.67;0.90;;;21.10;50.30;;;;;;5074973;28;20497;-57
2023/10/29 11:44:25;;;;;;;3.45;0.85;;;21.10;50.30;;;;;;5070141;28;20375;-55
2023/10/29 11:47:03;;;;;;;1.30;0.68;;;21.10;50.20;;;;;;5073794;28;20105;-59
2023/10/29 11:49:46;;;;;;;2.20;0.85;;;21.10;50.00;;;;;;5075417;28;20051;-54
2023/10/29 11:52:12;;;;;;;2.25;0.77;;;21.10;50.00;;;;;;5072431;28;20627;-56
2023/10/29 11:54:38;;;;;;;1.70;0.68;;;21.10;49.90;;;;;;5073442;28;20459;-56
2023/10/29 11:57:08;;;;;;;1.67;0.60;;;21.10;49.80;;;;;;5070346;28;20024;-58
2023/10/29 11:59:34;;;;;;;1.02;0.55;;;21.10;50.40;;;;;;5073350;28;20471;-58
2023/10/29 12:02:00;;;;;;;1.83;0.82;;;21.10;49.70;;;;;;5071709;28;20036;-59
2023/10/29 12:04:30;;;;;;;1.08;0.43;;;21.10;49.70;;;;;;5057877;28;20460;-56
2023/10/29 12:06:59;;;;;;;6.30;0.80;;;21.10;49.60;;;;;;5075494;28;20158;-58
2023/10/29 12:09:27;;;;;;;1.50;0.60;;;21.10;49.60;;;;;;5072569;28;20029;-58
2023/10/29 12:11:54;;;;;;;1.83;0.90;;;21.10;49.60;;;;;;5074760;28;20351;-58
2023/10/29 12:14:39;;;;;;;1.67;0.60;;;21.10;49.50;;;;;;5073823;28;20036;-55
2023/10/29 12:17:06;;;;;;;2.20;0.70;;;21.10;49.40;;;;;;5079047;28;20047;-59
2023/10/29 12:19:36;;;;;;;1.13;0.60;;;21.10;49.50;;;;;;5068682;28;20039;-57
2023/10/29 12:22:21;;;;;;;2.13;0.70;;;21.20;49.50;;;;;;5071507;28;20348;-59
2023/10/29 12:24:53;;;;;;;1.38;0.55;;;21.20;49.50;;;;;;5077749;28;20052;-58
2023/10/29 12:27:23;;;;;;;2.05;0.80;;;21.20;49.40;;;;;;5076221;28;20058;-57
2023/10/29 12:29:51;;;;;;;2.00;0.60;;;21.20;49.40;;;;;;5055247;28;20040;-57
2023/10/29 12:32:19;;;;;;;1.70;0.68;;;21.30;49.40;;;;;;5079038;28;20027;-59
2023/10/29 12:34:55;;;;;;;1.25;0.60;;;21.40;49.30;;;;;;5068788;28;20079;-58
2023/10/29 12:37:22;;;;;;;2.28;0.63;;;21.40;49.30;;;;;;5073626;28;20066;-58
2023/10/29 12:39:51;;;;;;;1.50;0.60;;;21.50;49.20;;;;;;5051593;28;20072;-56
2023/10/29 12:42:18;;;;;;;1.10;0.60;;;21.50;49.10;;;;;;5067575;28;20032;-57
2023/10/29 12:44:54;;;;;;;2.05;0.85;;;21.60;49.00;;;;;;5068571;28;20029;-60